Terminal Aerodrome Forecast
Issued by NWS Boston, MA

Current Version | Previous Version | Text Only | Print | Product List | Glossary On
Versions: 1 2 3 4 5 6 7 8 9 10 11 12 13 14 15 16 17 18 19 20 21 22 23 24 25 26 27 28 29 30 31 32 33 34
000 FTUS41 KBOX 010520 TAFORH TAF KORH 010520Z 0106/0206 02007KT 3SM BR OVC003 FM011500 02008KT 1SM -SHRA BR OVC003 FM011800 02009KT 3SM -SHRA BR OVC008 FM020300 02008KT 2SM BR OVC008=

USA.gov is the U.S. government's official web portal to all federal, state and local government web resources and services.